ASL792 LYBE-EPWA
Flight info
| Callsign | ASL792 |
|---|---|
| Flight time | 1h 14m |
| Altitude | 34000 |
| Route | TISAK DCT PARAK DCT PITOK DCT ORTEB DCT KONZI DCT LOGDA |
| Aircraft | B3XM/M-SDE2E3FGHIRWXY/LB1 |
Departure
| Time | 2026-05-04 17:21 |
|---|---|
| Airport | Belgrade Nikola Tesla Airport (LYBE) |
Arrival
| Time | 2026-05-04 18:35 |
|---|---|
| Airport | Warsaw Chopin Airport (EPWA) |
| Time | Latitude | Longitude | Altitude | Speed | Heading |
|---|---|---|---|---|---|
| 2026-05-04 16:48 | 44.82017 | 20.29341 | 342 ft | 0 kts | 302° |
| 2026-05-04 17:13 | 44.82000 | 20.29379 | 342 ft | 2 kts | 301° |
| 2026-05-04 17:14 | 44.81961 | 20.29405 | 342 ft | 2 kts | 15° |
| 2026-05-04 17:14 | 44.81953 | 20.29400 | 342 ft | 1 kts | 30° |
| 2026-05-04 17:14 | 44.81948 | 20.29395 | 342 ft | 0 kts | 32° |
| 2026-05-04 17:16 | 44.81950 | 20.29397 | 342 ft | 1 kts | 32° |
| 2026-05-04 17:16 | 44.82061 | 20.29493 | 342 ft | 6 kts | 32° |
| 2026-05-04 17:17 | 44.82092 | 20.29520 | 342 ft | 4 kts | 28° |
| 2026-05-04 17:17 | 44.82247 | 20.29294 | 342 ft | 12 kts | 301° |
| 2026-05-04 17:18 | 44.82290 | 20.29197 | 342 ft | 10 kts | 301° |
| 2026-05-04 17:18 | 44.82358 | 20.29040 | 341 ft | 7 kts | 301° |
| 2026-05-04 17:19 | 44.82406 | 20.28933 | 341 ft | 5 kts | 302° |
| 2026-05-04 17:19 | 44.82504 | 20.28854 | 341 ft | 10 kts | 13° |
| 2026-05-04 17:20 | 44.82619 | 20.29081 | 342 ft | 15 kts | 87° |
| 2026-05-04 17:20 | 44.82396 | 20.29679 | 342 ft | 88 kts | 121° |
| 2026-05-04 17:20 | 44.81963 | 20.30654 | 342 ft | 145 kts | 121° |
| 2026-05-04 17:21 | 44.80682 | 20.33526 | 1013 ft | 185 kts | 122° |
| 2026-05-04 17:21 | 44.79355 | 20.36533 | 2452 ft | 182 kts | 120° |
| 2026-05-04 17:22 | 44.78688 | 20.38052 | 3014 ft | 186 kts | 120° |
| 2026-05-04 17:22 | 44.78003 | 20.39593 | 3601 ft | 188 kts | 121° |
| 2026-05-04 17:23 | 44.75759 | 20.44629 | 4806 ft | 228 kts | 121° |
| 2026-05-04 17:23 | 44.74889 | 20.46579 | 5249 ft | 243 kts | 121° |
| 2026-05-04 17:23 | 44.73141 | 20.50791 | 6002 ft | 252 kts | 109° |
| 2026-05-04 17:24 | 44.72870 | 20.53157 | 6006 ft | 246 kts | 84° |
| 2026-05-04 17:24 | 44.75623 | 20.59269 | 5997 ft | 270 kts | 25° |
| 2026-05-04 17:25 | 44.77475 | 20.59946 | 6252 ft | 286 kts | 4° |
| 2026-05-04 17:25 | 44.81210 | 20.58602 | 7961 ft | 284 kts | 338° |
| 2026-05-04 17:26 | 44.84813 | 20.56309 | 9405 ft | 288 kts | 339° |
| 2026-05-04 17:26 | 44.90398 | 20.53027 | 11512 ft | 294 kts | 340° |
| 2026-05-04 17:27 | 44.94195 | 20.50835 | 12896 ft | 299 kts | 340° |
| 2026-05-04 17:27 | 44.98066 | 20.48590 | 14309 ft | 303 kts | 340° |
| 2026-05-04 17:28 | 45.01967 | 20.46321 | 15699 ft | 308 kts | 340° |
| 2026-05-04 17:29 | 45.07949 | 20.42839 | 17704 ft | 315 kts | 340° |
| 2026-05-04 17:29 | 45.14085 | 20.39256 | 19601 ft | 322 kts | 340° |
| 2026-05-04 17:30 | 45.20347 | 20.35597 | 21279 ft | 329 kts | 339° |
| 2026-05-04 17:31 | 45.24577 | 20.33120 | 22323 ft | 334 kts | 339° |
| 2026-05-04 17:31 | 45.31081 | 20.29301 | 23767 ft | 341 kts | 339° |
| 2026-05-04 17:32 | 45.35482 | 20.26710 | 24725 ft | 344 kts | 339° |
| 2026-05-04 17:33 | 45.42200 | 20.23023 | 26040 ft | 348 kts | 346° |
| 2026-05-04 17:33 | 45.44571 | 20.22255 | 26247 ft | 355 kts | 351° |
| 2026-05-04 17:34 | 45.52248 | 20.20844 | 26444 ft | 388 kts | 354° |
| 2026-05-04 17:34 | 45.54927 | 20.20407 | 26500 ft | 398 kts | 354° |
| 2026-05-04 17:35 | 45.63465 | 20.18948 | 26776 ft | 425 kts | 353° |
| 2026-05-04 17:35 | 45.69341 | 20.17908 | 27570 ft | 428 kts | 353° |
| 2026-05-04 17:35 | 45.72309 | 20.17378 | 27942 ft | 430 kts | 353° |
| 2026-05-04 17:36 | 45.75272 | 20.16848 | 28314 ft | 431 kts | 353° |
| 2026-05-04 17:36 | 45.78257 | 20.16313 | 28663 ft | 433 kts | 353° |
| 2026-05-04 17:36 | 45.81275 | 20.15771 | 29013 ft | 435 kts | 353° |
| 2026-05-04 17:36 | 45.84240 | 20.15239 | 29549 ft | 433 kts | 353° |
| 2026-05-04 17:37 | 45.87210 | 20.14703 | 30150 ft | 428 kts | 353° |
| 2026-05-04 17:37 | 45.90144 | 20.14175 | 30584 ft | 428 kts | 353° |
| 2026-05-04 17:37 | 45.93090 | 20.13643 | 30953 ft | 428 kts | 353° |
| 2026-05-04 17:37 | 45.96072 | 20.13105 | 31233 ft | 431 kts | 353° |
| 2026-05-04 17:38 | 45.99062 | 20.12566 | 31668 ft | 430 kts | 353° |
| 2026-05-04 17:38 | 46.02046 | 20.12027 | 32120 ft | 428 kts | 353° |
| 2026-05-04 17:38 | 46.05016 | 20.11489 | 32494 ft | 428 kts | 353° |
| 2026-05-04 17:38 | 46.07978 | 20.10951 | 32861 ft | 427 kts | 353° |
| 2026-05-04 17:39 | 46.13911 | 20.09929 | 33599 ft | 426 kts | 354° |
| 2026-05-04 17:39 | 46.16854 | 20.09696 | 34010 ft | 425 kts | 359° |
| 2026-05-04 17:39 | 46.19806 | 20.09779 | 34376 ft | 424 kts | 2° |
| 2026-05-04 17:40 | 46.22720 | 20.10045 | 34704 ft | 423 kts | 4° |
| 2026-05-04 17:40 | 46.25670 | 20.10402 | 34951 ft | 424 kts | 4° |
| 2026-05-04 17:40 | 46.31539 | 20.11193 | 35046 ft | 426 kts | 5° |
| 2026-05-04 17:41 | 46.37442 | 20.11978 | 35047 ft | 424 kts | 4° |
| 2026-05-04 17:41 | 46.43310 | 20.12733 | 35047 ft | 425 kts | 4° |
| 2026-05-04 17:42 | 46.49171 | 20.13473 | 35044 ft | 426 kts | 4° |
| 2026-05-04 17:42 | 46.55074 | 20.14214 | 35043 ft | 424 kts | 4° |
| 2026-05-04 17:43 | 46.60931 | 20.14949 | 35043 ft | 425 kts | 4° |
| 2026-05-04 17:43 | 46.66837 | 20.15690 | 35041 ft | 426 kts | 4° |
| 2026-05-04 17:44 | 46.72735 | 20.16432 | 35042 ft | 427 kts | 4° |
| 2026-05-04 17:44 | 46.78625 | 20.17175 | 35040 ft | 426 kts | 4° |
| 2026-05-04 17:45 | 46.84524 | 20.17920 | 35040 ft | 426 kts | 4° |
| 2026-05-04 17:45 | 46.90391 | 20.18663 | 35041 ft | 426 kts | 4° |
| 2026-05-04 17:46 | 46.96283 | 20.19411 | 35045 ft | 426 kts | 4° |
| 2026-05-04 17:46 | 47.02192 | 20.20161 | 35042 ft | 428 kts | 4° |
| 2026-05-04 17:47 | 47.08108 | 20.20914 | 35044 ft | 427 kts | 4° |
| 2026-05-04 17:47 | 47.14014 | 20.21670 | 35044 ft | 427 kts | 4° |
| 2026-05-04 17:48 | 47.19924 | 20.22427 | 35044 ft | 427 kts | 4° |
| 2026-05-04 17:48 | 47.25858 | 20.23188 | 35046 ft | 428 kts | 4° |
| 2026-05-04 17:49 | 47.31758 | 20.23945 | 35040 ft | 428 kts | 4° |
| 2026-05-04 17:49 | 47.37691 | 20.24710 | 35042 ft | 428 kts | 4° |
| 2026-05-04 17:50 | 47.43615 | 20.25474 | 35037 ft | 429 kts | 4° |
| 2026-05-04 17:50 | 47.49547 | 20.26241 | 35038 ft | 428 kts | 4° |
| 2026-05-04 17:51 | 47.55472 | 20.27010 | 35034 ft | 428 kts | 4° |
| 2026-05-04 17:51 | 47.61444 | 20.27787 | 35040 ft | 429 kts | 4° |
| 2026-05-04 17:52 | 47.67369 | 20.28559 | 35037 ft | 429 kts | 4° |
| 2026-05-04 17:52 | 47.73342 | 20.29340 | 35035 ft | 429 kts | 4° |
| 2026-05-04 17:53 | 47.79299 | 20.30120 | 35039 ft | 429 kts | 4° |
| 2026-05-04 17:53 | 47.85235 | 20.30899 | 35040 ft | 428 kts | 4° |
| 2026-05-04 17:54 | 47.91160 | 20.31678 | 35046 ft | 429 kts | 4° |
| 2026-05-04 17:54 | 47.97109 | 20.32463 | 35050 ft | 430 kts | 4° |
| 2026-05-04 17:55 | 48.03045 | 20.33248 | 35055 ft | 430 kts | 4° |
| 2026-05-04 17:55 | 48.09004 | 20.34037 | 35050 ft | 431 kts | 4° |
| 2026-05-04 17:56 | 48.15006 | 20.34833 | 35051 ft | 430 kts | 4° |
| 2026-05-04 17:56 | 48.20958 | 20.35625 | 35050 ft | 430 kts | 4° |
| 2026-05-04 17:57 | 48.26911 | 20.36418 | 35045 ft | 431 kts | 4° |
| 2026-05-04 17:57 | 48.32856 | 20.37211 | 35046 ft | 432 kts | 4° |
| 2026-05-04 17:58 | 48.38844 | 20.37910 | 35047 ft | 432 kts | 3° |
| 2026-05-04 17:58 | 48.44862 | 20.38536 | 35051 ft | 432 kts | 2° |
| 2026-05-04 17:59 | 48.50838 | 20.39162 | 35062 ft | 432 kts | 2° |
| 2026-05-04 18:00 | 48.59844 | 20.40126 | 35065 ft | 433 kts | 2° |
| 2026-05-04 18:00 | 48.65821 | 20.40772 | 35072 ft | 433 kts | 2° |
| 2026-05-04 18:01 | 48.71837 | 20.41427 | 35076 ft | 433 kts | 3° |
| 2026-05-04 18:01 | 48.77834 | 20.42082 | 35078 ft | 433 kts | 3° |
| 2026-05-04 18:02 | 48.86827 | 20.43069 | 35073 ft | 434 kts | 2° |
| 2026-05-04 18:02 | 48.92821 | 20.43728 | 35074 ft | 434 kts | 2° |
| 2026-05-04 18:03 | 48.98854 | 20.44392 | 35073 ft | 435 kts | 2° |
| 2026-05-04 18:03 | 49.04866 | 20.45056 | 35074 ft | 436 kts | 2° |
| 2026-05-04 18:04 | 49.10925 | 20.45727 | 35073 ft | 437 kts | 2° |
| 2026-05-04 18:05 | 49.19988 | 20.46735 | 35070 ft | 437 kts | 2° |
| 2026-05-04 18:05 | 49.26050 | 20.47410 | 35065 ft | 437 kts | 2° |
| 2026-05-04 18:06 | 49.35164 | 20.48430 | 35053 ft | 437 kts | 2° |
| 2026-05-04 18:06 | 49.41245 | 20.49113 | 35045 ft | 438 kts | 2° |
| 2026-05-04 18:07 | 49.47278 | 20.49791 | 35039 ft | 437 kts | 2° |
| 2026-05-04 18:07 | 49.53370 | 20.50476 | 35032 ft | 437 kts | 2° |
| 2026-05-04 18:08 | 49.59410 | 20.51160 | 35014 ft | 437 kts | 2° |
| 2026-05-04 18:08 | 49.65472 | 20.51848 | 35012 ft | 437 kts | 2° |
| 2026-05-04 18:09 | 49.77597 | 20.53224 | 34995 ft | 438 kts | 2° |
| 2026-05-04 18:10 | 49.83660 | 20.53916 | 34984 ft | 439 kts | 2° |
| 2026-05-04 18:10 | 49.89779 | 20.54616 | 34976 ft | 440 kts | 2° |
| 2026-05-04 18:11 | 49.95890 | 20.55315 | 34966 ft | 440 kts | 2° |
| 2026-05-04 18:11 | 50.01998 | 20.56018 | 34960 ft | 440 kts | 2° |
| 2026-05-04 18:12 | 50.08073 | 20.56718 | 34955 ft | 440 kts | 2° |
| 2026-05-04 18:12 | 50.14173 | 20.57403 | 34958 ft | 439 kts | 1° |
| 2026-05-04 18:13 | 50.20288 | 20.58031 | 34957 ft | 439 kts | 1° |
| 2026-05-04 18:14 | 50.29419 | 20.58955 | 34955 ft | 439 kts | 1° |
| 2026-05-04 18:14 | 50.35480 | 20.59578 | 34957 ft | 440 kts | 1° |
| 2026-05-04 18:15 | 50.47683 | 20.60841 | 34944 ft | 440 kts | 1° |
| 2026-05-04 18:15 | 50.50721 | 20.61158 | 34665 ft | 437 kts | 1° |
| 2026-05-04 18:16 | 50.53760 | 20.61476 | 34079 ft | 435 kts | 1° |
| 2026-05-04 18:16 | 50.56759 | 20.61790 | 33389 ft | 435 kts | 1° |
| 2026-05-04 18:16 | 50.59780 | 20.62105 | 32659 ft | 435 kts | 1° |
| 2026-05-04 18:17 | 50.65766 | 20.62732 | 31476 ft | 429 kts | 1° |
| 2026-05-04 18:17 | 50.68717 | 20.63042 | 30920 ft | 425 kts | 1° |
| 2026-05-04 18:17 | 50.74554 | 20.63724 | 29628 ft | 420 kts | 4° |
| 2026-05-04 18:18 | 50.77435 | 20.64460 | 28691 ft | 419 kts | 8° |
| 2026-05-04 18:18 | 50.80267 | 20.65450 | 27830 ft | 415 kts | 12° |
| 2026-05-04 18:18 | 50.83042 | 20.66520 | 27015 ft | 410 kts | 12° |
| 2026-05-04 18:18 | 50.85783 | 20.67597 | 26153 ft | 407 kts | 12° |
| 2026-05-04 18:19 | 50.91234 | 20.69694 | 24495 ft | 400 kts | 12° |
| 2026-05-04 18:19 | 50.93921 | 20.70700 | 23849 ft | 393 kts | 12° |
| 2026-05-04 18:19 | 50.96598 | 20.71688 | 22965 ft | 390 kts | 11° |
| 2026-05-04 18:20 | 50.99202 | 20.72636 | 22134 ft | 387 kts | 11° |
| 2026-05-04 18:20 | 51.01825 | 20.73586 | 21298 ft | 384 kts | 11° |
| 2026-05-04 18:20 | 51.04414 | 20.74520 | 20626 ft | 378 kts | 11° |
| 2026-05-04 18:20 | 51.06978 | 20.75444 | 20105 ft | 374 kts | 11° |
| 2026-05-04 18:21 | 51.09477 | 20.76343 | 19586 ft | 372 kts | 11° |
| 2026-05-04 18:21 | 51.12005 | 20.77252 | 19055 ft | 369 kts | 11° |
| 2026-05-04 18:21 | 51.14491 | 20.78146 | 18540 ft | 367 kts | 11° |
| 2026-05-04 18:21 | 51.16966 | 20.79038 | 18028 ft | 364 kts | 11° |
| 2026-05-04 18:22 | 51.19416 | 20.79922 | 17510 ft | 361 kts | 11° |
| 2026-05-04 18:22 | 51.21883 | 20.80813 | 16991 ft | 359 kts | 10° |
| 2026-05-04 18:22 | 51.24290 | 20.81682 | 16490 ft | 356 kts | 10° |
| 2026-05-04 18:22 | 51.26672 | 20.82543 | 15996 ft | 353 kts | 10° |
| 2026-05-04 18:23 | 51.29068 | 20.83410 | 15514 ft | 351 kts | 10° |
| 2026-05-04 18:23 | 51.31422 | 20.84263 | 15016 ft | 349 kts | 10° |
| 2026-05-04 18:23 | 51.33830 | 20.85136 | 14526 ft | 346 kts | 10° |
| 2026-05-04 18:23 | 51.36208 | 20.86000 | 14031 ft | 345 kts | 9° |
| 2026-05-04 18:24 | 51.38557 | 20.86854 | 13537 ft | 344 kts | 9° |
| 2026-05-04 18:24 | 51.40865 | 20.87694 | 13050 ft | 342 kts | 9° |
| 2026-05-04 18:24 | 51.43218 | 20.88550 | 12551 ft | 341 kts | 10° |
| 2026-05-04 18:24 | 51.45518 | 20.89389 | 12061 ft | 340 kts | 10° |
| 2026-05-04 18:25 | 51.47808 | 20.90225 | 11595 ft | 338 kts | 9° |
| 2026-05-04 18:25 | 51.50111 | 20.91066 | 11110 ft | 338 kts | 9° |
| 2026-05-04 18:25 | 51.52406 | 20.91905 | 10597 ft | 337 kts | 10° |
| 2026-05-04 18:25 | 51.54752 | 20.92766 | 10293 ft | 328 kts | 10° |
| 2026-05-04 18:26 | 51.56965 | 20.93581 | 10198 ft | 315 kts | 9° |
| 2026-05-04 18:26 | 51.59057 | 20.94354 | 10094 ft | 305 kts | 9° |
| 2026-05-04 18:26 | 51.61116 | 20.95110 | 9758 ft | 303 kts | 9° |
| 2026-05-04 18:26 | 51.63164 | 20.95858 | 9344 ft | 303 kts | 9° |
| 2026-05-04 18:27 | 51.65223 | 20.96612 | 8989 ft | 301 kts | 9° |
| 2026-05-04 18:27 | 51.67257 | 20.97360 | 8623 ft | 300 kts | 9° |
| 2026-05-04 18:27 | 51.69262 | 20.98099 | 8268 ft | 298 kts | 9° |
| 2026-05-04 18:27 | 51.71283 | 20.98845 | 7915 ft | 296 kts | 10° |
| 2026-05-04 18:28 | 51.73270 | 20.99579 | 7630 ft | 291 kts | 10° |
| 2026-05-04 18:28 | 51.75211 | 21.00297 | 7297 ft | 289 kts | 10° |
| 2026-05-04 18:28 | 51.77190 | 21.01028 | 6960 ft | 287 kts | 10° |
| 2026-05-04 18:28 | 51.79136 | 21.01748 | 6605 ft | 285 kts | 10° |
| 2026-05-04 18:29 | 51.81045 | 21.02454 | 6269 ft | 283 kts | 11° |
| 2026-05-04 18:29 | 51.82961 | 21.03165 | 5936 ft | 281 kts | 11° |
| 2026-05-04 18:29 | 51.84876 | 21.03876 | 5592 ft | 280 kts | 11° |
| 2026-05-04 18:29 | 51.86769 | 21.04580 | 5254 ft | 278 kts | 11° |
| 2026-05-04 18:30 | 51.90466 | 21.05958 | 4801 ft | 266 kts | 10° |
| 2026-05-04 18:30 | 51.92240 | 21.06619 | 4594 ft | 260 kts | 10° |
| 2026-05-04 18:30 | 51.93985 | 21.07269 | 4387 ft | 255 kts | 10° |
| 2026-05-04 18:31 | 51.95700 | 21.07909 | 4117 ft | 252 kts | 10° |
| 2026-05-04 18:31 | 51.97389 | 21.08538 | 3860 ft | 250 kts | 10° |
| 2026-05-04 18:31 | 51.99093 | 21.09175 | 3609 ft | 247 kts | 10° |
| 2026-05-04 18:31 | 52.00761 | 21.09654 | 3372 ft | 241 kts | 358° |
| 2026-05-04 18:32 | 52.02365 | 21.09179 | 3238 ft | 226 kts | 334° |
| 2026-05-04 18:32 | 52.03724 | 21.08010 | 2972 ft | 218 kts | 325° |
| 2026-05-04 18:32 | 52.05035 | 21.06764 | 2636 ft | 214 kts | 327° |
| 2026-05-04 18:32 | 52.06331 | 21.05625 | 2344 ft | 210 kts | 328° |
| 2026-05-04 18:33 | 52.07611 | 21.04507 | 2065 ft | 207 kts | 328° |
| 2026-05-04 18:33 | 52.08856 | 21.03422 | 1794 ft | 197 kts | 328° |
| 2026-05-04 18:33 | 52.10021 | 21.02412 | 1548 ft | 180 kts | 328° |
| 2026-05-04 18:33 | 52.11067 | 21.01504 | 1333 ft | 165 kts | 328° |
| 2026-05-04 18:34 | 52.12056 | 21.00644 | 1049 ft | 159 kts | 329° |
| 2026-05-04 18:34 | 52.13006 | 20.99828 | 804 ft | 152 kts | 329° |
| 2026-05-04 18:34 | 52.13944 | 20.99010 | 603 ft | 154 kts | 329° |
| 2026-05-04 18:34 | 52.14889 | 20.98187 | 465 ft | 153 kts | 329° |
| 2026-05-04 18:35 | 52.15831 | 20.97361 | 349 ft | 153 kts | 330° |
| 2026-05-04 18:35 | 52.16717 | 20.96580 | 332 ft | 125 kts | 332° |
| 2026-05-04 18:35 | 52.17278 | 20.96089 | 340 ft | 61 kts | 331° |
| 2026-05-04 18:35 | 52.17433 | 20.95993 | 341 ft | 0 kts | 356° |
| 2026-05-04 18:36 | 52.17484 | 20.96016 | 340 ft | 13 kts | 23° |
| 2026-05-04 18:36 | 52.17549 | 20.96067 | 339 ft | 8 kts | 26° |
| 2026-05-04 18:36 | 52.17596 | 20.96124 | 338 ft | 8 kts | 69° |
| 2026-05-04 18:36 | 52.17576 | 20.96220 | 336 ft | 9 kts | 133° |
| 2026-05-04 18:37 | 52.17519 | 20.96285 | 335 ft | 10 kts | 151° |
| 2026-05-04 18:37 | 52.17455 | 20.96341 | 335 ft | 12 kts | 152° |
| 2026-05-04 18:37 | 52.17378 | 20.96408 | 335 ft | 11 kts | 151° |
| 2026-05-04 18:37 | 52.17302 | 20.96476 | 335 ft | 12 kts | 151° |
| 2026-05-04 18:38 | 52.17227 | 20.96544 | 334 ft | 11 kts | 151° |
| 2026-05-04 18:38 | 52.17159 | 20.96604 | 334 ft | 10 kts | 148° |
| 2026-05-04 18:38 | 52.17136 | 20.96705 | 334 ft | 9 kts | 74° |
| 2026-05-04 18:38 | 52.17161 | 20.96794 | 334 ft | 7 kts | 76° |
| 2026-05-04 18:39 | 52.17144 | 20.96862 | 335 ft | 5 kts | 145° |
| 2026-05-04 18:39 | 52.17111 | 20.96888 | 334 ft | 4 kts | 171° |
| 2026-05-04 18:39 | 52.17087 | 20.96852 | 333 ft | 6 kts | 249° |
| 2026-05-04 18:39 | 52.17084 | 20.96791 | 333 ft | 3 kts | 274° |
| 2026-05-04 18:40 | 52.17085 | 20.96773 | 333 ft | 0 kts | 275° |